Time;durP1;ratioP1;P1;durP2;ratioP2;P2;SDS_P1;SDS_P2;PMS_P1;PMS_P2;Temp;Humidity;BMP_temperature;BMP_pressure;BME280_temperature;BME280_humidity;BME280_pressure;Samples;Min_cycle;Max_cycle;Signal;HPM_P1;HPM_P2
2024/04/25 00:02:17;;;;;;;3.92;1.27;;;;;;;12.90;43.84;93869.81;5484031;26;20493;-77
2024/04/25 00:04:42;;;;;;;7.93;1.42;;;;;;;13.10;43.50;93880.19;5482421;26;19994;-78
2024/04/25 00:07:07;;;;;;;3.97;1.35;;;;;;;13.06;43.07;93882.38;5481385;26;20016;-78
2024/04/25 00:09:33;;;;;;;13.85;1.80;;;;;;;13.06;42.79;93882.38;5480724;26;20433;-78
2024/04/25 00:11:58;;;;;;;4.20;1.15;;;;;;;13.20;42.73;93887.13;5482599;26;19994;-78
2024/04/25 00:14:24;;;;;;;2.40;1.08;;;;;;;13.19;42.70;93888.34;5481420;26;19994;-78
2024/04/25 00:16:49;;;;;;;5.85;1.27;;;;;;;13.30;42.39;93896.81;5481998;26;20071;-77
2024/04/25 00:19:14;;;;;;;6.45;1.40;;;;;;;13.33;42.47;93890.34;5481469;26;20044;-77
2024/04/25 00:21:40;;;;;;;5.15;1.25;;;;;;;13.37;42.17;93893.66;5449401;26;20005;-77
2024/04/25 00:24:05;;;;;;;4.80;1.50;;;;;;;13.40;42.19;93898.22;5483352;26;19998;-77
2024/04/25 00:26:31;;;;;;;2.63;1.20;;;;;;;13.46;42.14;93903.81;5480356;26;20360;-78
2024/04/25 00:28:56;;;;;;;6.43;1.30;;;;;;;13.45;42.65;93886.50;5485180;26;19998;-77
2024/04/25 00:31:23;;;;;;;3.53;1.20;;;;;;;13.52;42.69;93890.84;5482578;26;20002;-77
2024/04/25 00:33:49;;;;;;;4.95;2.25;;;;;;;13.48;42.59;93899.34;5481530;26;19994;-77
2024/04/25 00:36:14;;;;;;;3.00;1.40;;;;;;;13.34;43.05;93902.91;5482678;26;20004;-78
2024/04/25 00:38:40;;;;;;;3.45;1.35;;;;;;;13.25;43.24;93878.19;5482021;26;19994;-77
2024/04/25 00:41:05;;;;;;;3.88;1.38;;;;;;;13.41;43.29;93901.72;5483183;26;20393;-79
2024/04/25 00:43:31;;;;;;;4.68;1.30;;;;;;;13.38;43.45;93897.19;5482031;26;19994;-77
2024/04/25 00:46:00;;;;;;;5.82;1.88;;;;;;;13.48;42.60;93898.59;5480539;26;20009;-77
2024/04/25 00:48:27;;;;;;;3.30;1.42;;;;;;;13.46;42.46;93887.25;5480057;26;20033;-78
2024/04/25 00:50:52;;;;;;;4.43;1.42;;;;;;;13.40;42.22;93886.41;5479945;26;20008;-77
2024/04/25 00:53:18;;;;;;;4.13;1.80;;;;;;;13.35;42.16;93887.84;5480446;26;20070;-79
2024/04/25 00:55:47;;;;;;;5.05;1.13;;;;;;;13.23;42.13;93889.69;5479385;26;20008;-77
2024/04/25 00:58:14;;;;;;;7.70;1.63;;;;;;;13.08;42.08;93871.63;5485691;26;20506;-78
2024/04/25 01:00:42;;;;;;;4.90;1.40;;;;;;;13.09;42.25;93873.91;5452456;26;19999;-78
2024/04/25 01:03:10;;;;;;;6.65;1.40;;;;;;;13.05;42.41;93869.81;5484185;26;19994;-78
2024/04/25 01:05:37;;;;;;;3.35;1.38;;;;;;;12.98;42.64;93874.50;5483032;26;20014;-79
2024/04/25 01:08:03;;;;;;;4.35;1.30;;;;;;;12.98;42.58;93870.97;5483652;26;20435;-78
2024/04/25 01:10:28;;;;;;;4.40;1.30;;;;;;;12.93;42.54;93871.66;5485811;26;19998;-79
2024/04/25 01:12:53;;;;;;;3.22;1.20;;;;;;;12.72;42.90;93868.03;5484447;26;20272;-78
2024/04/25 01:15:19;;;;;;;4.38;2.00;;;;;;;12.72;42.84;93852.25;5485718;26;20637;-78
2024/04/25 01:17:44;;;;;;;6.63;1.30;;;;;;;12.65;43.35;93860.91;5484509;26;20500;-78
2024/04/25 01:20:10;;;;;;;6.53;1.50;;;;;;;12.72;43.15;93851.50;5484039;26;20005;-77
2024/04/25 01:22:40;;;;;;;7.25;1.60;;;;;;;12.76;43.40;93855.59;5484557;26;19998;-79
2024/04/25 01:25:06;;;;;;;4.55;1.50;;;;;;;12.71;43.86;93839.72;5483722;26;20001;-79
2024/04/25 01:27:32;;;;;;;5.82;1.38;;;;;;;12.58;44.59;93842.00;5452702;26;20447;-78
2024/04/25 01:29:58;;;;;;;4.95;1.55;;;;;;;12.58;45.00;93835.75;5452360;26;20145;-78
2024/04/25 01:32:24;;;;;;;4.82;1.60;;;;;;;12.60;45.19;93830.50;5484821;26;20073;-78
2024/04/25 01:34:50;;;;;;;5.03;1.48;;;;;;;12.62;45.34;93817.78;5483113;26;19998;-78
2024/04/25 01:37:15;;;;;;;4.00;1.40;;;;;;;12.70;45.39;93820.88;5486054;26;19998;-79
2024/04/25 01:39:41;;;;;;;2.10;1.13;;;;;;;12.78;44.99;93833.03;5484127;26;20315;-79
2024/04/25 01:42:06;;;;;;;5.32;1.50;;;;;;;12.86;45.25;93847.22;5483576;26;19998;-79
2024/04/25 01:44:32;;;;;;;4.65;1.92;;;;;;;12.89;45.04;93851.75;5485092;26;20101;-78
2024/04/25 01:46:57;;;;;;;5.32;1.45;;;;;;;12.88;45.15;93856.53;5452562;26;20463;-79
2024/04/25 01:49:22;;;;;;;2.47;1.60;;;;;;;12.87;45.18;93860.53;5485211;26;19994;-78
2024/04/25 01:51:48;;;;;;;3.28;1.85;;;;;;;12.86;45.73;93852.72;5451771;26;20370;-78
2024/04/25 01:54:13;;;;;;;3.72;1.38;;;;;;;12.78;45.95;93849.59;5483367;26;20005;-79
2024/04/25 01:56:39;;;;;;;3.05;1.65;;;;;;;12.84;45.86;93855.19;5482286;26;20002;-78
2024/04/25 01:59:04;;;;;;;3.45;1.73;;;;;;;12.69;46.08;93874.53;5485188;26;19994;-79
2024/04/25 02:01:29;;;;;;;2.78;1.40;;;;;;;12.35;47.19;93882.22;5452192;26;19998;-78
2024/04/25 02:03:55;;;;;;;3.05;1.60;;;;;;;12.29;47.38;93905.38;5484639;26;19998;-77
2024/04/25 02:06:20;;;;;;;5.95;2.10;;;;;;;12.31;47.70;93924.97;5484371;26;20481;-78
2024/04/25 02:08:45;;;;;;;4.35;1.80;;;;;;;12.28;48.00;93915.66;5483462;26;19997;-78
2024/04/25 02:11:11;;;;;;;2.95;1.40;;;;;;;12.11;48.24;93926.34;5483241;26;19998;-78
2024/04/25 02:13:36;;;;;;;4.95;2.22;;;;;;;12.03;48.99;93925.16;5482193;26;20017;-78
2024/04/25 02:16:02;;;;;;;5.03;1.52;;;;;;;12.06;50.12;93920.72;5483356;26;19998;-78
2024/04/25 02:18:27;;;;;;;6.88;2.08;;;;;;;12.03;50.99;93913.41;5482171;26;20018;-78
2024/04/25 02:26:20;;;;;;;2.78;1.38;;;;;;;11.83;54.37;93908.50;5483692;26;20070;-78
2024/04/25 02:28:46;;;;;;;3.25;1.55;;;;;;;11.84;54.64;93913.53;5483976;26;20002;-78
2024/04/25 02:31:13;;;;;;;7.50;2.03;;;;;;;11.73;55.69;93905.00;5451482;26;20009;-79
2024/04/25 02:33:39;;;;;;;3.40;1.80;;;;;;;11.80;56.30;93904.66;5483161;26;19998;-77
2024/04/25 02:36:05;;;;;;;4.90;1.70;;;;;;;11.62;57.02;93899.28;5482394;26;20010;-78
2024/04/25 02:38:31;;;;;;;3.95;1.73;;;;;;;11.59;56.90;93911.22;5488266;26;19994;-78
2024/04/25 02:40:56;;;;;;;2.70;1.73;;;;;;;11.28;57.85;93898.53;5484335;26;20001;-78
2024/04/25 02:43:21;;;;;;;5.13;1.67;;;;;;;11.22;58.59;93885.88;5452135;26;20421;-78
2024/04/25 02:45:47;;;;;;;5.60;1.88;;;;;;;11.10;59.48;93862.88;5484401;26;19994;-78
2024/04/25 02:48:12;;;;;;;6.80;2.33;;;;;;;11.09;60.59;93862.13;5483460;26;20480;-77
2024/04/25 02:50:38;;;;;;;4.45;1.95;;;;;;;11.06;60.88;93854.78;5485053;26;20427;-78
2024/04/25 02:53:03;;;;;;;4.60;2.30;;;;;;;11.09;61.27;93864.09;5483718;26;20002;-78
2024/04/25 02:55:29;;;;;;;6.00;2.03;;;;;;;11.23;60.56;93866.16;5483070;26;20008;-78
2024/04/25 02:57:54;;;;;;;4.07;2.10;;;;;;;11.07;60.63;93870.06;5451415;26;20014;-78
2024/04/25 03:00:19;;;;;;;4.90;2.17;;;;;;;11.07;60.40;93872.81;5483524;26;20350;-78
2024/04/25 03:02:45;;;;;;;3.40;1.70;;;;;;;11.19;60.37;93886.84;5484025;26;20354;-78
2024/04/25 03:05:10;;;;;;;3.45;1.88;;;;;;;11.29;60.54;93886.31;5481435;26;20022;-78
2024/04/25 03:07:36;;;;;;;4.97;2.00;;;;;;;11.39;59.94;93879.53;5452554;26;20004;-77
2024/04/25 03:10:02;;;;;;;4.18;2.50;;;;;;;11.28;60.72;93873.78;5481390;26;20008;-78
2024/04/25 03:12:28;;;;;;;6.68;1.90;;;;;;;11.23;61.26;93876.41;5482641;26;19998;-78
2024/04/25 03:14:54;;;;;;;4.75;2.00;;;;;;;11.11;61.59;93872.63;5481438;26;20009;-78
2024/04/25 03:17:20;;;;;;;3.80;2.60;;;;;;;11.11;62.09;93867.13;5451749;26;20076;-78
2024/04/25 03:19:46;;;;;;;3.38;2.35;;;;;;;10.83;63.24;93861.75;5480371;26;20006;-77
2024/04/25 03:22:11;;;;;;;8.43;2.63;;;;;;;10.80;63.47;93872.94;5483715;26;20009;-78
2024/04/25 03:24:36;;;;;;;3.85;1.90;;;;;;;10.86;63.19;93877.34;5483341;26;20385;-78
2024/04/25 03:27:02;;;;;;;6.13;2.28;;;;;;;10.93;62.87;93898.22;5482503;26;20002;-78
2024/04/25 03:29:27;;;;;;;4.28;2.30;;;;;;;10.92;63.04;93901.44;5483792;26;20026;-78
2024/04/25 03:31:52;;;;;;;5.47;2.50;;;;;;;10.79;63.32;93907.91;5482629;26;19998;-78
2024/04/25 03:34:18;;;;;;;4.78;2.35;;;;;;;10.63;64.01;93919.25;5483729;26;20063;-78
2024/04/25 03:36:44;;;;;;;6.43;2.60;;;;;;;10.65;63.72;93927.78;5481535;26;20006;-78
2024/04/25 03:39:10;;;;;;;5.15;2.30;;;;;;;10.61;64.26;93916.97;5481238;26;20332;-77
2024/04/25 03:41:35;;;;;;;3.38;2.10;;;;;;;10.51;64.69;93915.47;5482270;26;20409;-79
2024/04/25 03:44:00;;;;;;;4.70;2.53;;;;;;;10.58;64.51;93912.38;5486978;26;19998;-78
2024/04/25 03:46:27;;;;;;;4.40;2.60;;;;;;;10.54;64.80;93913.75;5483875;26;19994;-77
2024/04/25 03:48:52;;;;;;;3.88;2.13;;;;;;;10.68;64.11;93915.88;5450552;26;20325;-78
2024/04/25 03:51:18;;;;;;;3.72;2.47;;;;;;;10.67;63.81;93913.56;5483680;26;19994;-78
2024/04/25 03:53:43;;;;;;;4.38;2.13;;;;;;;10.71;63.53;93916.94;5481131;26;20067;-77
2024/04/25 03:56:08;;;;;;;3.20;2.42;;;;;;;10.84;63.02;93904.53;5483322;26;20009;-77
2024/04/25 03:58:34;;;;;;;4.75;2.22;;;;;;;10.90;63.08;93904.69;5450769;26;20006;-77
2024/04/25 04:01:00;;;;;;;3.28;2.30;;;;;;;10.95;62.56;93900.50;5481005;26;20009;-77
2024/04/25 04:03:26;;;;;;;5.78;2.78;;;;;;;11.02;62.59;93909.22;5483514;26;20020;-77
2024/04/25 04:05:51;;;;;;;5.28;2.88;;;;;;;11.02;62.59;93914.72;5480451;26;19998;-78
2024/04/25 04:08:17;;;;;;;2.85;2.00;;;;;;;11.02;62.66;93911.19;5481896;26;20009;-78
2024/04/25 04:10:43;;;;;;;4.47;2.22;;;;;;;11.06;62.51;93914.53;5482475;26;19994;-78
2024/04/25 04:13:10;;;;;;;3.65;2.47;;;;;;;10.95;62.80;93909.53;5481371;26;19994;-78
2024/04/25 04:15:36;;;;;;;4.03;2.60;;;;;;;10.94;63.35;93913.50;5482962;26;20003;-78
2024/04/25 04:18:01;;;;;;;5.07;2.75;;;;;;;11.05;62.86;93913.00;5483241;26;20026;-77
2024/04/25 04:20:26;;;;;;;6.25;2.92;;;;;;;11.12;62.62;93916.19;5481528;26;20703;-78
2024/04/25 04:22:52;;;;;;;4.53;2.90;;;;;;;11.09;63.32;93908.88;5481779;26;20005;-77
2024/04/25 04:25:17;;;;;;;4.30;2.75;;;;;;;10.97;63.03;93901.59;5483271;26;19990;-78
2024/04/25 04:27:43;;;;;;;5.05;2.50;;;;;;;10.90;63.90;93921.19;5481610;26;20002;-78
2024/04/25 04:30:09;;;;;;;4.72;2.95;;;;;;;10.93;64.13;93922.22;5482834;26;20022;-78
2024/04/25 04:32:34;;;;;;;4.00;2.90;;;;;;;10.92;63.95;93924.22;5487973;26;19991;-78
2024/04/25 04:34:59;;;;;;;7.13;3.50;;;;;;;10.83;63.64;93892.00;5489687;26;20005;-79
2024/04/25 04:37:25;;;;;;;4.70;2.58;;;;;;;10.96;64.27;93926.81;5488664;26;20297;-78
2024/04/25 04:39:50;;;;;;;5.85;2.80;;;;;;;11.02;64.33;93924.94;5489582;26;20413;-78
2024/04/25 04:42:15;;;;;;;6.28;3.70;;;;;;;10.98;64.69;93929.84;5489048;26;19994;-78
2024/04/25 04:44:41;;;;;;;5.93;3.22;;;;;;;11.06;64.21;93929.03;5457152;26;19998;-77
2024/04/25 04:47:06;;;;;;;3.42;2.78;;;;;;;11.16;63.70;93929.78;5490467;26;20489;-77
2024/04/25 04:49:32;;;;;;;6.13;3.03;;;;;;;11.21;63.69;93926.38;5493450;26;20010;-78
2024/04/25 04:51:57;;;;;;;5.57;3.13;;;;;;;10.99;64.27;93921.13;5488175;26;20429;-78
2024/04/25 04:54:22;;;;;;;5.25;2.90;;;;;;;11.01;64.12;93920.66;5489569;26;20474;-79
2024/04/25 04:56:48;;;;;;;5.60;3.20;;;;;;;11.10;64.04;93923.38;5490272;26;20005;-77
2024/04/25 04:59:14;;;;;;;6.47;3.30;;;;;;;11.12;64.34;93929.16;5458495;26;20073;-78
2024/04/25 05:01:39;;;;;;;5.35;3.13;;;;;;;10.97;64.44;93922.81;5489543;26;20005;-77
2024/04/25 05:04:04;;;;;;;4.22;3.05;;;;;;;10.87;65.12;93930.34;5490631;26;19994;-77
2024/04/25 05:06:30;;;;;;;6.63;3.30;;;;;;;10.98;64.88;93925.09;5489255;26;20055;-79
2024/04/25 05:08:55;;;;;;;5.20;3.53;;;;;;;10.84;65.48;93926.53;5490033;26;20006;-77
2024/04/25 05:11:21;;;;;;;3.83;3.03;;;;;;;10.73;65.37;93928.25;5488897;26;20013;-78
2024/04/25 05:13:46;;;;;;;5.20;2.90;;;;;;;10.85;65.25;93932.78;5488553;26;20062;-77
2024/04/25 05:16:12;;;;;;;5.72;3.38;;;;;;;10.96;64.78;93943.31;5489355;26;19990;-77
2024/04/25 05:18:37;;;;;;;6.30;2.88;;;;;;;10.85;65.04;93938.28;5489309;26;20444;-77
2024/04/25 05:21:02;;;;;;;5.18;3.00;;;;;;;10.90;65.34;93943.16;5488979;26;20026;-77
2024/04/25 05:23:28;;;;;;;9.85;3.72;;;;;;;10.85;65.54;93946.53;5456552;26;19997;-79
2024/04/25 05:25:54;;;;;;;5.25;3.22;;;;;;;10.80;65.56;93952.66;5490094;26;20002;-78
2024/04/25 05:28:19;;;;;;;7.85;3.78;;;;;;;10.82;65.53;93948.22;5488347;26;20417;-77
2024/04/25 05:30:46;;;;;;;6.82;4.25;;;;;;;10.57;66.55;93932.09;5490123;26;19998;-77
2024/04/25 05:33:11;;;;;;;7.20;3.70;;;;;;;10.76;65.65;93935.56;5486651;26;20528;-78
2024/04/25 05:35:36;;;;;;;5.63;3.30;;;;;;;10.83;66.13;93926.97;5487556;26;20005;-78
2024/04/25 05:38:02;;;;;;;4.57;3.65;;;;;;;10.88;65.86;93934.59;5487147;26;20312;-79
2024/04/25 05:40:29;;;;;;;5.10;3.17;;;;;;;10.64;66.34;93943.53;5488354;26;20029;-79
2024/04/25 05:42:54;;;;;;;4.82;3.28;;;;;;;10.81;66.04;93930.19;5486356;26;20070;-78
2024/04/25 05:45:19;;;;;;;7.35;3.50;;;;;;;10.87;65.77;93925.59;5482767;26;20010;-78
2024/04/25 05:47:45;;;;;;;11.07;4.30;;;;;;;10.92;65.30;93935.22;5452962;26;20066;-78
2024/04/25 05:50:10;;;;;;;7.78;3.80;;;;;;;10.98;65.16;93921.59;5484120;26;20441;-79
2024/04/25 05:52:36;;;;;;;6.70;3.22;;;;;;;11.02;64.94;93931.22;5484616;26;20002;-80
2024/04/25 05:55:02;;;;;;;6.88;3.40;;;;;;;11.00;65.05;93930.13;5485742;26;19998;-79
2024/04/25 05:57:28;;;;;;;5.22;3.47;;;;;;;10.87;65.04;93931.09;5483178;26;19991;-78
2024/04/25 05:59:54;;;;;;;7.50;3.20;;;;;;;10.77;64.94;93926.84;5484547;26;19994;-77
2024/04/25 06:02:19;;;;;;;7.32;3.42;;;;;;;10.79;65.26;93918.91;5483916;26;19994;-78
2024/04/25 06:04:45;;;;;;;5.47;3.03;;;;;;;10.89;64.97;93914.13;5485284;26;19990;-77
2024/04/25 06:07:10;;;;;;;3.50;2.83;;;;;;;10.85;65.18;93917.06;5484050;26;20009;-77
2024/04/25 06:09:35;;;;;;;3.22;2.70;;;;;;;10.74;65.24;93918.78;5482504;26;20360;-77
2024/04/25 06:12:01;;;;;;;7.47;3.67;;;;;;;10.80;65.45;93917.69;5484057;26;20045;-78
2024/04/25 06:14:26;;;;;;;5.32;3.70;;;;;;;10.78;65.57;93914.66;5484522;26;19995;-78
2024/04/25 06:16:52;;;;;;;10.18;4.38;;;;;;;10.86;65.38;93926.81;5485064;26;20341;-77
2024/04/25 06:19:17;;;;;;;9.60;4.07;;;;;;;10.89;65.61;93917.63;5482300;26;20009;-76
2024/04/25 06:21:42;;;;;;;9.57;4.00;;;;;;;10.90;65.55;93929.41;5483307;26;20010;-76
2024/04/25 06:24:08;;;;;;;8.80;4.32;;;;;;;10.93;65.30;93924.97;5481894;26;20381;-77
2024/04/25 06:26:34;;;;;;;10.60;5.40;;;;;;;10.89;65.79;93934.13;5483172;26;20001;-76
2024/04/25 06:28:59;;;;;;;13.38;5.28;;;;;;;10.90;66.13;93915.69;5483085;26;19998;-77
2024/04/25 06:31:24;;;;;;;9.35;4.75;;;;;;;10.87;65.95;93916.59;5484446;26;20005;-77
2024/04/25 06:33:51;;;;;;;7.43;4.40;;;;;;;10.76;66.17;93916.31;5482133;26;20002;-77
2024/04/25 06:36:16;;;;;;;8.73;4.63;;;;;;;10.78;66.32;93914.66;5481786;26;19998;-78
2024/04/25 06:38:42;;;;;;;6.15;4.40;;;;;;;10.90;65.92;93915.69;5483048;26;20007;-77
2024/04/25 06:41:09;;;;;;;6.60;3.88;;;;;;;10.95;66.20;93906.78;5481564;26;20005;-77
2024/04/25 06:43:34;;;;;;;6.70;4.00;;;;;;;11.12;65.85;93915.41;5483059;26;20411;-73
2024/04/25 06:45:59;;;;;;;6.35;4.18;;;;;;;11.17;65.48;93915.53;5483123;26;20457;-72
2024/04/25 06:48:25;;;;;;;6.85;4.28;;;;;;;11.20;65.84;93919.38;5483911;26;19998;-73
2024/04/25 06:50:50;;;;;;;6.60;4.55;;;;;;;11.21;65.98;93920.88;5451845;26;20335;-73
2024/04/25 06:53:15;;;;;;;7.78;4.43;;;;;;;11.23;65.99;93928.66;5483548;26;19998;-77
2024/04/25 06:55:43;;;;;;;7.78;3.95;;;;;;;11.21;64.71;93926.38;5480891;26;20013;-76
2024/04/25 06:58:09;;;;;;;5.78;3.92;;;;;;;11.27;65.04;93927.28;5484655;26;20002;-76
2024/04/25 07:00:36;;;;;;;6.97;4.78;;;;;;;11.36;64.87;93930.00;5485275;26;19994;-77
2024/04/25 07:03:01;;;;;;;6.05;3.95;;;;;;;11.38;64.83;93924.03;5481514;26;19998;-76
2024/04/25 07:05:26;;;;;;;7.40;4.50;;;;;;;11.47;64.36;93934.22;5482566;26;20089;-77
2024/04/25 07:07:53;;;;;;;7.35;3.40;;;;;;;11.48;63.46;93931.00;5483324;26;19994;-76
2024/04/25 07:10:23;;;;;;;6.40;3.47;;;;;;;11.48;63.15;93933.75;5483134;26;20002;-77
2024/04/25 07:12:48;;;;;;;7.28;4.00;;;;;;;11.41;63.21;93923.88;5481641;26;20443;-77
2024/04/25 07:15:13;;;;;;;8.23;5.72;;;;;;;11.51;63.54;93930.06;5481109;26;19994;-77
2024/04/25 07:17:39;;;;;;;8.30;4.03;;;;;;;11.61;63.64;93933.53;5484023;26;20018;-77
2024/04/25 07:20:05;;;;;;;5.13;3.50;;;;;;;11.67;63.36;93939.91;5481832;26;20010;-79
2024/04/25 07:22:30;;;;;;;5.03;3.22;;;;;;;11.68;63.79;93936.69;5483877;26;19998;-78
2024/04/25 07:24:56;;;;;;;5.68;4.00;;;;;;;11.62;64.09;93935.06;5482598;26;20001;-77
2024/04/25 07:27:22;;;;;;;6.10;3.75;;;;;;;11.73;64.20;93929.03;5481326;26;20459;-78
2024/04/25 07:29:47;;;;;;;6.57;3.42;;;;;;;11.69;63.78;93929.19;5480703;26;20037;-78
2024/04/25 07:32:15;;;;;;;5.40;3.00;;;;;;;11.75;63.10;93932.06;5482541;26;20035;-78
2024/04/25 07:34:41;;;;;;;7.00;3.30;;;;;;;11.72;63.09;93941.28;5483152;26;19994;-78
2024/04/25 07:37:06;;;;;;;6.13;3.67;;;;;;;11.65;62.77;93932.13;5482201;26;20005;-78
2024/04/25 07:39:31;;;;;;;4.05;3.05;;;;;;;11.72;62.82;93925.50;5482018;26;20332;-78
2024/04/25 07:41:57;;;;;;;4.88;3.05;;;;;;;11.63;62.42;93926.31;5480470;26;19998;-78
2024/04/25 07:44:22;;;;;;;4.22;3.13;;;;;;;11.58;62.74;93937.22;5481875;26;20004;-78
2024/04/25 07:46:48;;;;;;;5.85;2.78;;;;;;;11.64;62.98;93940.84;5482344;26;20005;-79
2024/04/25 07:49:15;;;;;;;4.10;2.90;;;;;;;11.54;61.44;93937.41;5483039;26;20069;-79
2024/04/25 07:51:41;;;;;;;4.28;3.17;;;;;;;11.43;62.74;93948.16;5482813;26;20016;-78
2024/04/25 07:54:06;;;;;;;4.63;2.97;;;;;;;11.50;63.10;93952.56;5482098;26;19990;-77
2024/04/25 07:56:32;;;;;;;3.45;3.08;;;;;;;11.54;63.58;93951.16;5483844;26;20065;-78
2024/04/25 07:58:57;;;;;;;4.22;2.50;;;;;;;11.75;63.57;93954.09;5482007;26;19998;-78
2024/04/25 08:01:22;;;;;;;4.22;3.10;;;;;;;11.80;63.71;93958.97;5483010;26;19994;-78
2024/04/25 08:03:48;;;;;;;4.97;3.25;;;;;;;11.81;62.96;93961.25;5484330;26;20002;-77
2024/04/25 08:06:13;;;;;;;4.90;3.38;;;;;;;11.91;62.24;93951.72;5478227;26;20481;-78
2024/04/25 08:08:39;;;;;;;4.40;3.38;;;;;;;11.89;62.72;93954.19;5477199;26;20006;-77
2024/04/25 08:11:06;;;;;;;3.97;3.08;;;;;;;11.87;63.21;93964.94;5478377;26;20009;-78
2024/04/25 08:13:31;;;;;;;4.55;3.17;;;;;;;11.95;62.82;93959.81;5479802;26;20006;-77
2024/04/25 08:15:56;;;;;;;5.25;3.28;;;;;;;11.92;63.28;93953.25;5481492;26;20387;-78
2024/04/25 08:18:22;;;;;;;5.57;3.35;;;;;;;11.92;63.69;93958.75;5482229;26;20104;-79
2024/04/25 08:20:47;;;;;;;4.43;3.05;;;;;;;11.91;63.89;93957.22;5479220;26;19994;-78
2024/04/25 08:23:13;;;;;;;5.70;3.33;;;;;;;12.06;63.72;93954.53;5482604;26;20498;-78
2024/04/25 08:25:38;;;;;;;8.70;3.10;;;;;;;11.94;63.96;93950.81;5482069;26;20436;-78
2024/04/25 08:28:04;;;;;;;4.20;3.20;;;;;;;11.80;63.54;93950.69;5481684;26;20006;-78
2024/04/25 08:30:29;;;;;;;5.05;3.45;;;;;;;11.96;63.57;93964.84;5482447;26;20342;-79
2024/04/25 08:32:55;;;;;;;3.97;3.08;;;;;;;12.09;63.34;93961.84;5481820;26;19998;-77
2024/04/25 08:35:20;;;;;;;6.13;3.80;;;;;;;12.14;63.30;93957.69;5481210;26;20008;-77
2024/04/25 08:37:46;;;;;;;3.85;2.70;;;;;;;12.03;62.05;93949.19;5481269;26;19994;-78
2024/04/25 08:40:11;;;;;;;4.57;3.13;;;;;;;12.11;61.28;93964.91;5482112;26;20009;-78
2024/04/25 08:42:37;;;;;;;5.70;2.85;;;;;;;12.15;61.63;93957.22;5481118;26;20005;-78
2024/04/25 08:45:04;;;;;;;5.90;3.30;;;;;;;12.24;62.13;93978.44;5480427;26;19994;-77
2024/04/25 08:47:32;;;;;;;5.57;3.08;;;;;;;12.22;62.31;93973.41;5481225;26;20368;-78
2024/04/25 08:50:02;;;;;;;3.67;2.85;;;;;;;12.21;62.17;93958.13;5479427;26;20006;-78
2024/04/25 08:52:28;;;;;;;5.22;2.83;;;;;;;12.33;62.15;93952.78;5480947;26;19998;-78
2024/04/25 08:54:53;;;;;;;3.17;2.65;;;;;;;12.58;60.72;93946.78;5478858;26;20328;-77
2024/04/25 08:57:19;;;;;;;4.25;2.88;;;;;;;12.76;59.97;93946.59;5481639;26;20280;-77
2024/04/25 08:59:44;;;;;;;4.75;3.53;;;;;;;13.11;59.95;93948.69;5478454;26;20009;-77
2024/04/25 09:02:14;;;;;;;5.30;3.45;;;;;;;13.25;59.67;93945.19;5481678;26;20298;-77
2024/04/25 09:04:39;;;;;;;5.50;3.28;;;;;;;13.20;60.14;93947.81;5480817;26;20048;-77
2024/04/25 09:07:11;;;;;;;5.22;2.72;;;;;;;13.24;60.23;93942.88;5479152;26;20005;-75
2024/04/25 09:09:38;;;;;;;6.05;3.17;;;;;;;13.55;59.47;93939.59;5482256;26;20011;-77
2024/04/25 09:12:03;;;;;;;4.88;3.40;;;;;;;13.81;58.08;93945.22;5476019;26;20463;-74
2024/04/25 09:14:28;;;;;;;3.53;2.65;;;;;;;14.03;57.17;93953.06;5481198;26;19990;-75
2024/04/25 09:16:54;;;;;;;9.82;6.15;;;;;;;13.99;56.69;93949.72;5477798;26;19994;-75
2024/04/25 09:19:24;;;;;;;6.50;3.40;;;;;;;13.95;55.23;93938.91;5482637;26;20289;-78
2024/04/25 09:21:50;;;;;;;5.68;2.72;;;;;;;14.08;54.42;93933.03;5484229;26;20160;-91
2024/04/25 09:24:16;;;;;;;5.07;2.83;;;;;;;14.35;53.88;93932.59;5486107;26;20024;-94
2024/04/25 09:26:42;;;;;;;5.03;3.38;;;;;;;14.51;53.93;93936.06;5488663;26;19990;-91
2024/04/25 09:29:07;;;;;;;4.80;2.90;;;;;;;14.62;53.84;93933.41;5486915;26;20001;-89
2024/04/25 09:31:35;;;;;;;4.95;3.83;;;;;;;14.73;53.91;93932.75;5453591;26;20031;-75
2024/04/25 09:34:01;;;;;;;6.03;3.17;;;;;;;14.66;53.84;93933.19;5482562;26;19994;-76
2024/04/25 09:36:28;;;;;;;4.88;2.97;;;;;;;14.55;54.20;93942.88;5485361;26;20437;-76
2024/04/25 09:38:53;;;;;;;5.03;3.70;;;;;;;14.59;53.61;93937.16;5484246;26;20022;-75
2024/04/25 09:41:22;;;;;;;7.68;4.03;;;;;;;14.47;53.36;93924.47;5483116;26;20005;-76
2024/04/25 09:43:49;;;;;;;5.35;3.50;;;;;;;14.56;53.10;93924.28;5452078;26;19994;-75
2024/04/25 09:46:28;;;;;;;5.75;2.80;;;;;;;14.50;53.79;93923.47;5482662;26;20140;-76
2024/04/25 09:48:56;;;;;;;4.93;3.17;;;;;;;14.47;54.31;93925.22;5483884;26;19998;-75
2024/04/25 09:51:54;;;;;;;5.43;3.00;;;;;;;14.41;53.90;93929.13;5482137;26;20039;-75
2024/04/25 09:54:24;;;;;;;3.92;2.60;;;;;;;14.35;53.77;93926.31;5424647;26;20023;-76
2024/04/25 09:56:57;;;;;;;5.63;3.63;;;;;;;14.49;53.30;93919.19;5482979;26;20436;-76
2024/04/25 09:59:47;;;;;;;5.15;2.85;;;;;;;14.58;53.13;93919.81;5482583;26;19998;-77
2024/04/25 10:02:15;;;;;;;4.57;2.92;;;;;;;14.37;53.93;93914.75;5485280;26;19994;-75
2024/04/25 10:04:42;;;;;;;6.55;3.47;;;;;;;14.37;54.40;93929.34;5482331;26;20415;-74
2024/04/25 10:07:08;;;;;;;7.40;3.55;;;;;;;14.34;53.69;93930.31;5482531;26;19994;-75
2024/04/25 10:09:34;;;;;;;4.07;2.22;;;;;;;14.23;53.69;93919.13;5452247;26;20091;-73
2024/04/25 10:12:03;;;;;;;5.20;2.85;;;;;;;14.40;54.14;93913.81;5482131;26;20014;-73
2024/04/25 10:14:29;;;;;;;3.72;2.58;;;;;;;14.37;54.02;93918.28;5482953;26;19998;-74
2024/04/25 10:16:54;;;;;;;4.18;2.40;;;;;;;14.40;53.69;93925.63;5483326;26;20070;-74
2024/04/25 10:19:20;;;;;;;4.65;2.67;;;;;;;14.36;53.78;93938.88;5482935;26;20002;-77
2024/04/25 10:21:46;;;;;;;3.55;2.22;;;;;;;14.44;53.10;93947.50;5483395;26;20086;-75
2024/04/25 10:24:15;;;;;;;4.57;2.95;;;;;;;14.19;54.00;93946.97;5452174;26;20348;-75
2024/04/25 10:26:46;;;;;;;6.60;2.55;;;;;;;13.92;54.69;93939.84;5451544;26;19994;-75
2024/04/25 10:29:12;;;;;;;5.32;3.30;;;;;;;14.02;54.98;93944.00;5482744;26;20424;-75
2024/04/25 10:31:39;;;;;;;6.10;3.08;;;;;;;13.90;56.98;93950.63;5452505;26;19994;-75
2024/04/25 10:34:05;;;;;;;5.30;3.40;;;;;;;13.77;57.33;93947.44;5481600;26;20451;-75
2024/04/25 10:36:32;;;;;;;4.65;3.80;;;;;;;13.47;57.88;93939.22;5483148;26;19998;-75
2024/04/25 10:38:57;;;;;;;5.43;3.50;;;;;;;13.37;58.65;93937.06;5483461;26;20338;-75
2024/04/25 10:41:35;;;;;;;8.40;5.40;;;;;;;13.33;59.16;93953.06;5483158;26;19994;-76
2024/04/25 10:44:04;;;;;;;6.90;5.03;;;;;;;13.35;58.80;93954.09;5484112;26;20045;-75
2024/04/25 10:46:29;;;;;;;7.00;4.65;;;;;;;13.23;59.46;93952.41;5481984;26;19998;-75
2024/04/25 10:48:55;;;;;;;5.80;4.50;;;;;;;13.22;59.04;93951.66;5452609;26;20387;-75
2024/04/25 10:51:20;;;;;;;5.53;4.28;;;;;;;12.90;59.89;93950.59;5481344;26;19998;-75
2024/04/25 10:53:48;;;;;;;5.72;4.07;;;;;;;13.06;59.39;93945.81;5484816;26;20138;-75
2024/04/25 10:56:13;;;;;;;5.75;4.38;;;;;;;13.06;59.81;93946.59;5481405;26;20006;-75
2024/04/25 10:58:51;;;;;;;8.27;5.15;;;;;;;13.10;59.61;93940.88;5482838;26;20062;-75
2024/04/25 11:01:26;;;;;;;9.73;5.63;;;;;;;12.93;60.52;93932.31;5483684;26;19994;-75
2024/04/25 11:03:56;;;;;;;7.68;5.03;;;;;;;12.91;60.83;93940.31;5482182;26;20425;-75
2024/04/25 11:06:23;;;;;;;7.05;5.82;;;;;;;13.12;60.43;93928.13;5451649;26;19994;-75
2024/04/25 11:08:49;;;;;;;9.38;6.28;;;;;;;12.88;61.13;93935.75;5450946;26;20560;-75
2024/04/25 11:11:14;;;;;;;9.43;6.05;;;;;;;12.76;61.35;93938.31;5484378;26;19998;-75
2024/04/25 11:13:39;;;;;;;11.27;6.35;;;;;;;12.85;61.59;93933.97;5481230;26;20006;-75
2024/04/25 11:16:05;;;;;;;8.07;6.47;;;;;;;12.81;62.17;93947.94;5451916;26;20071;-75
2024/04/25 11:18:31;;;;;;;7.20;5.35;;;;;;;12.65;62.30;93940.13;5451034;26;20380;-76
2024/04/25 11:20:57;;;;;;;5.95;5.07;;;;;;;12.53;61.12;93952.19;5483568;26;19997;-73
2024/04/25 11:23:22;;;;;;;6.07;4.22;;;;;;;12.58;60.49;93943.25;5481974;26;19998;-74
2024/04/25 11:25:48;;;;;;;6.22;3.67;;;;;;;12.33;60.44;93945.31;5450952;26;19994;-74
2024/04/25 11:28:13;;;;;;;5.25;3.30;;;;;;;12.26;61.37;93951.16;5481571;26;20002;-75
2024/04/25 11:30:39;;;;;;;6.53;4.07;;;;;;;12.20;62.73;93956.56;5482803;26;19994;-75
2024/04/25 11:33:04;;;;;;;5.18;3.80;;;;;;;12.27;63.28;93960.19;5483677;26;19998;-74
2024/04/25 11:35:30;;;;;;;5.97;3.22;;;;;;;12.31;63.15;93956.03;5450831;26;19998;-74